createdAt,value
2018-01-23T00:06:52.282Z,0
2018-01-23T00:16:52.215Z,0
2018-01-23T00:26:52.352Z,0
2018-01-23T00:36:52.174Z,0
2018-01-23T00:46:52.234Z,0
2018-01-23T00:56:52.249Z,0
2018-01-23T01:06:52.270Z,0
2018-01-23T01:16:52.286Z,0
2018-01-23T01:26:52.514Z,0
2018-01-23T01:36:53.309Z,0
2018-01-23T01:46:52.211Z,0
2018-01-23T01:56:52.356Z,0
2018-01-23T02:06:53.263Z,0
2018-01-23T02:16:52.225Z,0
2018-01-23T02:26:53.270Z,0
2018-01-23T02:36:52.224Z,0
2018-01-23T02:46:52.229Z,0
2018-01-23T02:56:52.335Z,0
2018-01-23T03:06:52.331Z,0
2018-01-23T03:16:52.433Z,0
2018-01-23T03:26:52.379Z,0
2018-01-23T03:36:52.277Z,0
2018-01-23T03:46:52.371Z,0
2018-01-23T03:56:52.330Z,0
2018-01-23T04:06:52.386Z,0
2018-01-23T04:16:52.324Z,0
2018-01-23T04:26:52.440Z,0
2018-01-23T04:36:52.321Z,0
2018-01-23T04:46:52.453Z,0
2018-01-23T04:56:52.403Z,0
2018-01-23T05:06:52.450Z,0
2018-01-23T05:16:52.433Z,0
2018-01-23T05:26:52.508Z,0
2018-01-23T05:36:52.437Z,0
2018-01-23T05:46:52.427Z,0
2018-01-23T05:56:52.448Z,0
2018-01-23T06:06:52.486Z,0
2018-01-23T06:16:52.562Z,0
2018-01-23T06:26:52.532Z,0
2018-01-23T06:36:52.474Z,0
2018-01-23T06:46:52.541Z,4
2018-01-23T06:56:52.493Z,4
2018-01-23T07:06:53.042Z,28
2018-01-23T07:16:52.534Z,104
2018-01-23T07:26:52.597Z,224
2018-01-23T07:36:52.582Z,424
2018-01-23T07:46:52.794Z,676
2018-01-23T07:56:52.580Z,960
2018-01-23T08:06:52.572Z,1108
2018-01-23T08:16:52.588Z,1156
2018-01-23T08:26:52.619Z,1564
2018-01-23T08:36:52.589Z,1904
2018-01-23T08:46:52.580Z,1968
2018-01-23T08:56:52.607Z,2216
2018-01-23T09:06:52.612Z,2740
2018-01-23T09:16:52.671Z,2920
2018-01-23T09:26:52.601Z,3272
2018-01-23T09:36:52.690Z,3848
2018-01-23T09:46:52.651Z,4244
2018-01-23T09:56:52.729Z,4892
2018-01-23T10:06:52.671Z,4400
2018-01-23T10:16:52.613Z,4500
2018-01-23T10:26:52.709Z,5732
2018-01-23T10:36:52.665Z,6020
2018-01-23T10:46:52.792Z,5324
2018-01-23T10:56:52.707Z,5848
2018-01-23T11:06:52.781Z,5744
2018-01-23T11:16:52.716Z,5196
2018-01-23T11:26:52.776Z,5892
2018-01-23T11:36:52.729Z,4320
2018-01-23T11:46:52.735Z,4244
2018-01-23T11:56:52.741Z,6180
2018-01-23T12:06:52.809Z,7100
2018-01-23T12:16:52.786Z,7112
2018-01-23T12:26:52.860Z,7524
2018-01-23T12:36:52.890Z,5604
2018-01-23T12:46:52.902Z,5732
2018-01-23T12:56:52.950Z,6656
2018-01-23T13:06:53.055Z,5896
2018-01-23T13:16:52.806Z,5396
2018-01-23T13:26:52.870Z,5536
2018-01-23T13:36:53.006Z,6364
2018-01-23T13:46:53.019Z,4576
2018-01-23T13:56:52.920Z,3960
2018-01-23T14:06:53.000Z,3900
2018-01-23T14:16:52.946Z,3512
2018-01-23T14:26:53.017Z,2916
2018-01-23T14:36:52.991Z,2676
2018-01-23T14:46:52.995Z,2236
2018-01-23T14:56:52.965Z,1616
2018-01-23T15:06:52.966Z,1300
2018-01-23T15:16:53.003Z,1268
2018-01-23T15:26:53.032Z,1028
2018-01-23T15:36:52.979Z,604
2018-01-23T15:46:53.075Z,292
2018-01-23T15:56:53.033Z,104
2018-01-23T16:06:53.020Z,40
2018-01-23T16:16:53.030Z,8
2018-01-23T16:26:53.104Z,4
2018-01-23T16:36:53.067Z,4
2018-01-23T16:46:53.092Z,0
2018-01-23T16:56:53.067Z,0
2018-01-23T17:06:53.047Z,0
2018-01-23T17:16:53.060Z,4
2018-01-23T17:26:53.017Z,0
2018-01-23T17:36:53.126Z,0
2018-01-23T17:46:53.105Z,0
2018-01-23T17:56:53.262Z,0
2018-01-23T18:06:53.132Z,4
2018-01-23T18:16:53.171Z,0
2018-01-23T18:26:53.253Z,0
2018-01-23T18:36:53.117Z,0
2018-01-23T18:46:53.143Z,0
2018-01-23T18:56:53.239Z,0
2018-01-23T19:06:53.159Z,0
2018-01-23T19:16:54.835Z,0
2018-01-23T19:26:53.159Z,0
2018-01-23T19:36:53.902Z,0
2018-01-23T19:46:54.469Z,0
2018-01-23T19:56:54.052Z,0
2018-01-23T20:06:54.785Z,0
2018-01-23T20:16:54.737Z,0
2018-01-23T20:26:55.259Z,0
2018-01-23T20:36:53.379Z,4
2018-01-23T20:46:53.280Z,0
2018-01-23T20:56:53.931Z,0
2018-01-23T21:11:11.743Z,0
2018-01-23T21:16:53.307Z,0
2018-01-23T21:26:53.386Z,0
2018-01-23T21:36:53.430Z,0
2018-01-23T21:46:53.385Z,0
2018-01-23T21:56:53.478Z,0
2018-01-23T22:07:29.035Z,0
2018-01-23T22:17:02.229Z,0
2018-01-23T22:26:53.336Z,0
2018-01-23T22:36:53.392Z,0
2018-01-23T22:46:53.377Z,0
2018-01-23T22:56:53.411Z,0
2018-01-23T23:06:53.373Z,0
2018-01-23T23:16:53.445Z,0
2018-01-23T23:26:53.480Z,0
2018-01-23T23:36:53.437Z,0
2018-01-23T23:46:53.369Z,0
2018-01-23T23:56:53.476Z,0
